Time;durP1;ratioP1;P1;durP2;ratioP2;P2;SDS_P1;SDS_P2;PMS_P1;PMS_P2;Temp;Humidity;BMP_temperature;BMP_pressure;BME280_temperature;BME280_humidity;BME280_pressure;Samples;Min_cycle;Max_cycle;Signal;HPM_P1;HPM_P2
2022/01/19 00:01:15;;;;;;;0.30;0.30;;;6.30;99.90;;;;;;5066432;28;20288;-81
2022/01/19 00:03:40;;;;;;;0.10;0.10;;;6.40;99.90;;;;;;5065561;28;20184;-81
2022/01/19 00:06:06;;;;;;;0.10;0.10;;;6.30;99.90;;;;;;5064617;28;20542;-80
2022/01/19 00:08:32;;;;;;;0.10;0.10;;;6.30;99.90;;;;;;5065885;28;20201;-80
2022/01/19 00:10:58;;;;;;;0.10;0.10;;;6.30;99.90;;;;;;5066096;28;20518;-80
2022/01/19 00:13:24;;;;;;;0.10;0.10;;;6.40;99.90;;;;;;5065973;28;20215;-80
2022/01/19 00:15:50;;;;;;;0.30;0.30;;;6.30;99.90;;;;;;5065188;28;20267;-80
2022/01/19 00:18:18;;;;;;;0.10;0.10;;;6.30;99.90;;;;;;5064622;28;20347;-80
2022/01/19 00:20:44;;;;;;;0.13;0.13;;;6.20;99.90;;;;;;5065278;28;20696;-80
2022/01/19 00:23:11;;;;;;;0.10;0.10;;;6.20;99.90;;;;;;5064686;28;20182;-81
2022/01/19 00:25:38;;;;;;;0.10;0.10;;;6.30;99.90;;;;;;5065951;28;20180;-80
2022/01/19 00:28:04;;;;;;;0.30;0.30;;;6.30;99.90;;;;;;5065691;28;20208;-80
2022/01/19 00:30:30;;;;;;;0.10;0.10;;;6.20;99.90;;;;;;5064534;28;20200;-80
2022/01/19 00:32:56;;;;;;;0.10;0.10;;;6.20;99.90;;;;;;5065007;28;20196;-81
2022/01/19 00:35:22;;;;;;;0.30;0.10;;;6.10;99.90;;;;;;5064206;28;20182;-80
2022/01/19 00:37:47;;;;;;;0.10;0.10;;;6.20;99.90;;;;;;5065563;28;20753;-80
2022/01/19 00:40:14;;;;;;;0.13;0.13;;;6.30;99.90;;;;;;5064282;28;20729;-81
2022/01/19 00:42:43;;;;;;;0.10;0.10;;;6.30;99.90;;;;;;5063711;28;20173;-81
2022/01/19 00:45:10;;;;;;;0.43;0.43;;;6.30;99.90;;;;;;5063636;28;20200;-80
2022/01/19 00:47:36;;;;;;;0.10;0.10;;;6.20;99.90;;;;;;5062779;28;20180;-80
2022/01/19 00:50:04;;;;;;;0.10;0.10;;;6.10;99.90;;;;;;5065073;28;20173;-80
2022/01/19 00:52:30;;;;;;;0.23;0.23;;;6.10;99.90;;;;;;5064141;28;20603;-80
2022/01/19 00:54:55;;;;;;;0.27;0.27;;;6.10;99.90;;;;;;5065323;28;20173;-80
2022/01/19 00:57:21;;;;;;;0.10;0.10;;;6.30;99.90;;;;;;5065029;28;20260;-80
2022/01/19 00:59:46;;;;;;;0.10;0.10;;;6.40;99.90;;;;;;5063410;28;20242;-80
2022/01/19 01:02:13;;;;;;;0.30;0.30;;;6.40;99.90;;;;;;5065061;28;20221;-80
2022/01/19 01:04:38;;;;;;;0.13;0.13;;;6.30;99.90;;;;;;5062706;28;20274;-80
2022/01/19 01:07:04;;;;;;;0.30;0.30;;;6.40;99.90;;;;;;5065182;28;20204;-81
2022/01/19 01:09:30;;;;;;;0.10;0.10;;;6.30;99.90;;;;;;5063526;28;20756;-80
2022/01/19 01:12:02;;;;;;;0.20;0.20;;;6.20;99.90;;;;;;5064170;28;20696;-80
2022/01/19 01:20:04;;;;;;;0.20;0.20;;;6.40;99.90;;;;;;5065171;28;20184;-81
2022/01/19 01:22:29;;;;;;;0.50;0.50;;;6.50;99.90;;;;;;5056047;28;20286;-81
2022/01/19 01:24:55;;;;;;;0.10;0.10;;;6.50;99.90;;;;;;5063945;28;20223;-80
2022/01/19 01:27:20;;;;;;;0.77;0.53;;;6.60;99.90;;;;;;5065925;28;20185;-80
2022/01/19 01:29:46;;;;;;;0.13;0.13;;;6.60;99.90;;;;;;5065027;28;20207;-80
2022/01/19 01:32:11;;;;;;;0.10;0.10;;;6.60;99.90;;;;;;5064983;28;20244;-79
2022/01/19 01:34:37;;;;;;;0.30;0.30;;;6.60;99.90;;;;;;5063478;28;20188;-80
2022/01/19 01:37:03;;;;;;;0.00;0.00;;;6.60;99.90;;;;;;5064379;28;20209;-80
2022/01/19 01:39:29;;;;;;;0.10;0.10;;;6.60;99.90;;;;;;5063375;28;20257;-80
2022/01/19 01:41:55;;;;;;;0.30;0.30;;;6.60;99.90;;;;;;5064069;28;20200;-80
2022/01/19 01:44:20;;;;;;;0.20;0.20;;;6.70;99.90;;;;;;5062917;28;20178;-80
2022/01/19 01:46:50;;;;;;;0.20;0.20;;;6.70;99.90;;;;;;5063318;28;20180;-81
2022/01/19 01:49:25;;;;;;;0.30;0.30;;;6.60;99.90;;;;;;5064132;28;20241;-81
2022/01/19 01:54:34;;;;;;;0.10;0.10;;;6.60;99.90;;;;;;5066959;28;20264;-81
2022/01/19 01:57:00;;;;;;;0.10;0.10;;;6.60;99.90;;;;;;5069268;28;20288;-81
2022/01/19 01:59:26;;;;;;;0.10;0.10;;;6.60;99.90;;;;;;5067012;28;20219;-81
2022/01/19 02:01:51;;;;;;;0.20;0.20;;;6.60;99.90;;;;;;5069141;28;20200;-81
2022/01/19 02:04:21;;;;;;;0.67;0.67;;;6.50;99.90;;;;;;5066902;28;20212;-80
2022/01/19 02:09:19;;;;;;;0.33;0.33;;;6.50;99.90;;;;;;5067110;28;20670;-80
2022/01/19 02:22:51;;;;;;;0.20;0.20;;;6.60;99.90;;;;;;5068740;28;21238;-80
2022/01/19 02:25:18;;;;;;;0.13;0.13;;;6.60;99.90;;;;;;5066806;28;20181;-80
2022/01/19 02:31:02;;;;;;;0.10;0.10;;;6.60;99.90;;;;;;5068687;28;20208;-80
2022/01/19 02:41:26;;;;;;;0.20;0.20;;;6.60;99.90;;;;;;5068751;28;20581;-80
2022/01/19 02:43:52;;;;;;;0.10;0.10;;;6.70;99.90;;;;;;5068114;28;20173;-81
2022/01/19 02:49:18;;;;;;;0.50;0.50;;;6.70;99.90;;;;;;5066460;28;21948;-81
2022/01/19 02:51:49;;;;;;;0.13;0.13;;;6.70;99.90;;;;;;5067893;28;21065;-80
2022/01/19 02:54:18;;;;;;;0.23;0.23;;;6.70;99.90;;;;;;5066008;28;20313;-81
2022/01/19 02:56:48;;;;;;;0.10;0.10;;;6.70;99.90;;;;;;5066152;28;20187;-80
2022/01/19 03:10:15;;;;;;;0.40;0.20;;;6.80;99.90;;;;;;5066362;28;20266;-80
2022/01/19 03:12:41;;;;;;;0.10;0.10;;;6.80;99.90;;;;;;5065548;28;20186;-80
2022/01/19 03:15:08;;;;;;;0.10;0.10;;;6.70;99.90;;;;;;5066444;28;20854;-80
2022/01/19 03:17:33;;;;;;;0.07;0.07;;;6.80;99.90;;;;;;5065085;28;20195;-81
2022/01/19 03:19:59;;;;;;;0.10;0.10;;;6.80;99.90;;;;;;5074101;28;20185;-80
2022/01/19 03:22:32;;;;;;;0.10;0.10;;;6.70;99.90;;;;;;5066283;28;20211;-79
2022/01/19 03:24:57;;;;;;;0.17;0.13;;;6.70;99.90;;;;;;5066069;28;20577;-79
2022/01/19 03:27:23;;;;;;;0.47;0.20;;;6.50;99.90;;;;;;5066805;28;20227;-80
2022/01/19 03:29:48;;;;;;;0.10;0.10;;;6.30;99.90;;;;;;5067024;28;20554;-80
2022/01/19 03:32:14;;;;;;;0.20;0.20;;;6.20;99.90;;;;;;5067554;28;20238;-79
2022/01/19 03:34:40;;;;;;;0.20;0.20;;;6.30;99.90;;;;;;5071590;28;20196;-79
2022/01/19 03:37:07;;;;;;;0.10;0.10;;;6.20;99.90;;;;;;5085034;28;20190;-79
2022/01/19 03:39:33;;;;;;;0.43;0.20;;;6.20;99.90;;;;;;5074064;28;20233;-79
2022/01/19 03:41:59;;;;;;;0.10;0.10;;;6.30;99.90;;;;;;5070485;28;20682;-79
2022/01/19 03:44:24;;;;;;;0.13;0.13;;;6.20;99.90;;;;;;5068396;28;20237;-80
2022/01/19 03:47:01;;;;;;;0.10;0.10;;;6.20;99.90;;;;;;5064746;28;20269;-80
2022/01/19 03:49:28;;;;;;;0.10;0.10;;;6.10;99.90;;;;;;5065486;28;20206;-80
2022/01/19 03:51:59;;;;;;;0.10;0.10;;;6.20;99.90;;;;;;5063902;28;20192;-79
2022/01/19 03:54:26;;;;;;;0.13;0.13;;;6.20;99.90;;;;;;5065336;28;20533;-79
2022/01/19 03:56:52;;;;;;;0.17;0.17;;;6.20;99.90;;;;;;5063112;28;20184;-80
2022/01/19 03:59:17;;;;;;;0.70;0.70;;;6.30;99.90;;;;;;5063881;28;20224;-79
2022/01/19 04:01:43;;;;;;;0.40;0.17;;;6.30;99.90;;;;;;5064231;28;20258;-79
2022/01/19 04:04:36;;;;;;;0.27;0.27;;;6.30;99.90;;;;;;5065080;28;20591;-79
2022/01/19 04:07:02;;;;;;;0.10;0.10;;;6.20;99.90;;;;;;5065596;28;20223;-81
2022/01/19 04:09:28;;;;;;;1.03;0.30;;;6.20;99.90;;;;;;5064599;28;20287;-80
2022/01/19 04:11:55;;;;;;;0.20;0.20;;;5.80;99.90;;;;;;5065891;28;20197;-80
2022/01/19 04:14:25;;;;;;;0.53;0.53;;;5.50;99.90;;;;;;5064995;28;20246;-80
2022/01/19 04:16:54;;;;;;;0.30;0.30;;;5.30;99.90;;;;;;5063178;28;20789;-80
2022/01/19 04:19:41;;;;;;;0.10;0.10;;;5.30;99.90;;;;;;5065552;28;20211;-80
2022/01/19 04:22:10;;;;;;;0.20;0.20;;;5.30;99.90;;;;;;5066555;28;20218;-79
2022/01/19 04:24:37;;;;;;;0.70;0.70;;;5.10;99.90;;;;;;5064311;28;20247;-79
2022/01/19 04:29:47;;;;;;;0.20;0.20;;;4.90;99.90;;;;;;5064086;28;20209;-79
2022/01/19 04:32:17;;;;;;;0.37;0.20;;;4.70;99.90;;;;;;5064621;28;20263;-79
2022/01/19 04:34:45;;;;;;;0.10;0.10;;;4.60;99.90;;;;;;5064672;28;20568;-79
2022/01/19 05:01:51;;;;;;;0.13;0.13;;;4.80;99.90;;;;;;5065056;28;20331;-79
2022/01/19 05:04:31;;;;;;;0.10;0.10;;;4.90;99.90;;;;;;5063791;28;20206;-80
2022/01/19 05:07:15;;;;;;;0.20;0.20;;;5.00;99.90;;;;;;5063246;28;20172;-80
2022/01/19 05:15:01;;;;;;;0.13;0.13;;;4.90;99.90;;;;;;5062002;28;20219;-79
2022/01/19 05:17:27;;;;;;;0.10;0.10;;;4.80;99.90;;;;;;5064602;28;20187;-80
2022/01/19 05:19:53;;;;;;;0.20;0.20;;;4.70;99.90;;;;;;5064351;28;20185;-79
2022/01/19 05:22:18;;;;;;;0.27;0.27;;;4.70;99.90;;;;;;5065017;28;20205;-79
2022/01/19 05:24:45;;;;;;;0.20;0.20;;;4.60;99.90;;;;;;5061839;28;20217;-79
2022/01/19 05:27:11;;;;;;;0.20;0.20;;;4.60;99.90;;;;;;5062670;28;20195;-80
2022/01/19 05:29:36;;;;;;;0.10;0.10;;;4.80;99.90;;;;;;5067678;28;20224;-79
2022/01/19 05:32:02;;;;;;;0.10;0.10;;;4.80;99.90;;;;;;5067904;28;20185;-80
2022/01/19 05:34:28;;;;;;;0.10;0.10;;;5.00;99.90;;;;;;5067110;28;20196;-79
2022/01/19 05:36:53;;;;;;;0.20;0.20;;;5.10;99.90;;;;;;5068496;28;20214;-80
2022/01/19 05:39:19;;;;;;;0.10;0.10;;;5.10;99.90;;;;;;5068795;28;20215;-79
2022/01/19 05:41:44;;;;;;;0.10;0.10;;;5.30;99.90;;;;;;5067797;28;20258;-79
2022/01/19 05:44:10;;;;;;;0.20;0.20;;;5.40;99.90;;;;;;5068520;28;20220;-79
2022/01/19 05:46:35;;;;;;;0.10;0.10;;;5.40;99.90;;;;;;5066448;28;20287;-79
2022/01/19 05:49:01;;;;;;;0.10;0.10;;;5.50;99.90;;;;;;5068132;28;20938;-81
2022/01/19 05:51:27;;;;;;;0.10;0.10;;;5.50;99.90;;;;;;5066964;28;20226;-80
2022/01/19 05:53:52;;;;;;;0.20;0.20;;;5.60;99.90;;;;;;5066878;28;20221;-79
2022/01/19 05:56:18;;;;;;;0.30;0.30;;;5.70;99.90;;;;;;5062649;28;20655;-80
2022/01/19 05:58:43;;;;;;;0.47;0.40;;;5.70;99.90;;;;;;5067956;28;20704;-79
2022/01/19 06:01:09;;;;;;;0.00;0.00;;;5.90;99.90;;;;;;5066577;28;20204;-80
2022/01/19 06:03:34;;;;;;;0.30;0.30;;;5.80;99.90;;;;;;5068924;28;20557;-80
2022/01/19 06:06:00;;;;;;;0.10;0.10;;;5.80;99.90;;;;;;5067042;28;20196;-80
2022/01/19 06:10:57;;;;;;;0.10;0.10;;;5.80;99.90;;;;;;5067028;28;20184;-80
2022/01/19 06:13:24;;;;;;;0.20;0.20;;;5.80;99.90;;;;;;5068114;28;20185;-80
2022/01/19 06:15:50;;;;;;;0.10;0.10;;;5.80;99.90;;;;;;5067041;28;20185;-80
2022/01/19 06:18:17;;;;;;;0.10;0.10;;;5.80;99.90;;;;;;5066836;28;20584;-81
2022/01/19 06:20:43;;;;;;;0.10;0.10;;;5.80;99.90;;;;;;5067841;28;20239;-79
2022/01/19 06:23:10;;;;;;;0.10;0.10;;;5.90;99.90;;;;;;5075379;28;20196;-81
2022/01/19 06:25:35;;;;;;;0.10;0.10;;;5.90;99.90;;;;;;5067527;28;20177;-79
2022/01/19 06:28:02;;;;;;;0.37;0.33;;;5.80;99.90;;;;;;5064123;28;20231;-80
2022/01/19 06:30:27;;;;;;;0.10;0.10;;;5.90;99.90;;;;;;5067063;28;20183;-80
2022/01/19 06:32:53;;;;;;;0.57;0.30;;;6.00;99.90;;;;;;5066040;28;20203;-79
2022/01/19 06:35:19;;;;;;;0.20;0.20;;;6.10;99.90;;;;;;5068155;28;20199;-80
2022/01/19 06:37:44;;;;;;;0.30;0.30;;;6.10;99.90;;;;;;5067827;28;20208;-80
2022/01/19 06:40:12;;;;;;;0.17;0.17;;;6.10;99.90;;;;;;5067239;28;20177;-80
2022/01/19 06:42:38;;;;;;;0.67;0.30;;;6.10;99.90;;;;;;5067922;28;20181;-79
2022/01/19 06:45:05;;;;;;;0.20;0.20;;;6.00;99.90;;;;;;5065965;28;20708;-80
2022/01/19 06:47:33;;;;;;;2.63;0.50;;;6.10;99.90;;;;;;5066540;28;20626;-80
2022/01/19 06:49:58;;;;;;;0.40;0.37;;;5.90;99.90;;;;;;5072485;28;20185;-80
2022/01/19 06:52:24;;;;;;;0.73;0.50;;;6.00;99.90;;;;;;5065704;28;21034;-80
2022/01/19 06:54:50;;;;;;;0.20;0.20;;;5.90;99.90;;;;;;5068689;28;20188;-81
2022/01/19 06:57:15;;;;;;;0.60;0.10;;;6.00;99.90;;;;;;5066371;28;20185;-79
2022/01/19 06:59:41;;;;;;;0.17;0.17;;;6.00;99.90;;;;;;5067129;28;20227;-80
2022/01/19 07:02:07;;;;;;;0.27;0.27;;;5.90;99.90;;;;;;5067367;28;20772;-80
2022/01/19 07:04:33;;;;;;;0.10;0.10;;;5.80;99.90;;;;;;5064968;28;20557;-80
2022/01/19 07:06:58;;;;;;;0.20;0.20;;;5.70;99.90;;;;;;5064679;28;20187;-79
2022/01/19 07:09:24;;;;;;;0.50;0.50;;;5.50;99.90;;;;;;5064864;28;20205;-79
2022/01/19 07:11:50;;;;;;;0.37;0.37;;;5.30;99.90;;;;;;5064909;28;20239;-80
2022/01/19 07:14:17;;;;;;;0.17;0.17;;;5.20;99.90;;;;;;5063471;28;21109;-79
2022/01/19 07:16:43;;;;;;;0.37;0.37;;;5.30;99.90;;;;;;5063379;28;20189;-79
2022/01/19 07:19:09;;;;;;;0.33;0.33;;;5.20;99.90;;;;;;5065985;28;20222;-78
2022/01/19 07:21:35;;;;;;;0.67;0.17;;;5.10;99.90;;;;;;5062018;28;20265;-79
2022/01/19 07:24:00;;;;;;;0.20;0.20;;;5.10;99.90;;;;;;5067166;28;20194;-82
2022/01/19 07:26:26;;;;;;;0.37;0.37;;;5.00;99.90;;;;;;5064242;28;20192;-82
2022/01/19 07:28:52;;;;;;;0.23;0.23;;;4.90;99.90;;;;;;5067972;28;20204;-83
2022/01/19 07:31:18;;;;;;;0.67;0.67;;;4.90;99.90;;;;;;5071045;28;20192;-81
2022/01/19 07:33:43;;;;;;;1.10;0.50;;;4.90;99.90;;;;;;5070343;28;20189;-81
2022/01/19 07:36:09;;;;;;;0.80;0.53;;;4.70;99.90;;;;;;5067499;28;20189;-83
2022/01/19 07:38:34;;;;;;;0.30;0.30;;;4.70;99.90;;;;;;5068149;28;20574;-80
2022/01/19 07:41:00;;;;;;;0.77;0.77;;;4.80;99.90;;;;;;5072662;28;20242;-83
2022/01/19 07:43:25;;;;;;;0.17;0.17;;;4.80;99.90;;;;;;5070223;28;20187;-82
2022/01/19 07:45:51;;;;;;;0.40;0.40;;;4.80;99.90;;;;;;5071675;28;20216;-83
2022/01/19 07:48:17;;;;;;;1.40;1.33;;;4.80;99.90;;;;;;5069741;28;20212;-81
2022/01/19 07:50:43;;;;;;;0.23;0.23;;;4.80;99.90;;;;;;5069492;28;20195;-79
2022/01/19 07:53:08;;;;;;;0.40;0.40;;;4.90;99.90;;;;;;5064480;28;20301;-78
2022/01/19 07:55:34;;;;;;;0.87;0.43;;;5.00;99.90;;;;;;5064209;28;20187;-79
2022/01/19 07:58:01;;;;;;;0.60;0.23;;;5.10;99.90;;;;;;5063531;28;20205;-79
2022/01/19 08:00:27;;;;;;;0.27;0.27;;;5.10;99.90;;;;;;5061179;28;20191;-79
2022/01/19 08:02:53;;;;;;;0.20;0.20;;;5.10;99.90;;;;;;5061796;28;20886;-79
2022/01/19 08:05:18;;;;;;;0.60;0.30;;;5.20;99.90;;;;;;5062496;28;20192;-78
2022/01/19 08:07:44;;;;;;;0.40;0.40;;;5.30;99.90;;;;;;5064584;28;20199;-79
2022/01/19 08:10:11;;;;;;;0.20;0.20;;;5.30;99.90;;;;;;5063229;28;20232;-79
2022/01/19 08:12:37;;;;;;;0.20;0.20;;;5.30;99.90;;;;;;5064212;28;20195;-79
2022/01/19 08:15:04;;;;;;;0.10;0.10;;;5.40;99.90;;;;;;5060948;28;20279;-79
2022/01/19 08:17:29;;;;;;;0.43;0.43;;;5.40;99.90;;;;;;5060839;28;20218;-80
2022/01/19 08:19:56;;;;;;;0.40;0.37;;;5.40;99.90;;;;;;5063553;28;20243;-79
2022/01/19 08:22:21;;;;;;;0.30;0.30;;;5.40;99.90;;;;;;5059723;28;20280;-80
2022/01/19 08:24:47;;;;;;;0.40;0.40;;;5.50;99.90;;;;;;5064873;28;20181;-78
2022/01/19 08:27:13;;;;;;;0.73;0.60;;;5.60;99.90;;;;;;5065106;28;20177;-79
2022/01/19 08:29:39;;;;;;;0.50;0.50;;;5.60;99.90;;;;;;5065925;28;20574;-79
2022/01/19 08:32:05;;;;;;;0.37;0.37;;;5.60;99.90;;;;;;5062388;28;20214;-79
2022/01/19 08:34:32;;;;;;;1.90;0.90;;;5.70;99.90;;;;;;5063145;28;20197;-78
2022/01/19 08:36:58;;;;;;;1.13;0.30;;;5.70;99.90;;;;;;5060845;28;20270;-80
2022/01/19 08:39:24;;;;;;;0.83;0.50;;;5.70;99.90;;;;;;5062595;28;20302;-79
2022/01/19 08:41:51;;;;;;;0.40;0.40;;;5.80;99.90;;;;;;5063132;28;20207;-78
2022/01/19 08:44:17;;;;;;;1.03;0.63;;;5.90;99.90;;;;;;5054916;28;20257;-81
2022/01/19 08:46:44;;;;;;;0.50;0.50;;;5.90;99.90;;;;;;5056447;28;20764;-80
2022/01/19 08:49:10;;;;;;;0.37;0.37;;;5.90;99.90;;;;;;5059569;28;20214;-80
2022/01/19 08:51:36;;;;;;;0.97;0.97;;;5.80;99.90;;;;;;5056553;28;20589;-80
2022/01/19 08:54:02;;;;;;;0.37;0.37;;;5.80;99.90;;;;;;5058391;28;20242;-81
2022/01/19 08:56:27;;;;;;;0.40;0.40;;;5.70;99.90;;;;;;5062817;28;20320;-79
2022/01/19 08:58:53;;;;;;;0.20;0.20;;;5.80;99.90;;;;;;5063740;28;20254;-80
2022/01/19 09:01:18;;;;;;;1.17;0.50;;;5.70;99.90;;;;;;5065139;28;20590;-80
2022/01/19 09:03:44;;;;;;;0.50;0.50;;;5.80;99.90;;;;;;5065387;28;20977;-79
2022/01/19 09:06:10;;;;;;;0.23;0.23;;;6.00;99.90;;;;;;5064924;28;20244;-80
2022/01/19 09:08:35;;;;;;;0.20;0.20;;;6.00;99.90;;;;;;5064963;28;20274;-80
2022/01/19 09:11:01;;;;;;;0.77;0.77;;;6.20;99.90;;;;;;5064847;28;20185;-80
2022/01/19 09:13:27;;;;;;;0.53;0.30;;;6.20;99.90;;;;;;5065631;28;20195;-80
2022/01/19 09:15:53;;;;;;;0.87;0.87;;;6.30;99.90;;;;;;5065488;28;20194;-80
2022/01/19 09:18:18;;;;;;;0.73;0.43;;;6.30;99.90;;;;;;5065186;28;20214;-80
2022/01/19 09:20:44;;;;;;;1.60;1.50;;;6.40;99.90;;;;;;5065309;28;20243;-80
2022/01/19 09:23:10;;;;;;;0.37;0.37;;;6.40;99.90;;;;;;5063096;28;20188;-80
2022/01/19 09:25:35;;;;;;;0.30;0.30;;;6.60;99.90;;;;;;5064872;28;20189;-80
2022/01/19 09:28:01;;;;;;;0.20;0.20;;;6.70;99.90;;;;;;5059810;28;20208;-80
2022/01/19 09:30:27;;;;;;;0.40;0.40;;;6.80;99.90;;;;;;5065004;28;20187;-80
2022/01/19 09:33:07;;;;;;;0.37;0.37;;;6.80;99.90;;;;;;5063744;28;20699;-80
2022/01/19 09:35:54;;;;;;;0.20;0.20;;;6.80;99.90;;;;;;5060480;28;20230;-80
2022/01/19 09:38:25;;;;;;;0.30;0.30;;;6.70;99.90;;;;;;5064977;28;20215;-80
2022/01/19 09:40:51;;;;;;;1.70;0.50;;;6.50;99.90;;;;;;5064769;28;20296;-80
2022/01/19 09:43:18;;;;;;;0.83;0.43;;;6.40;99.90;;;;;;5063893;28;20272;-79
2022/01/19 09:45:44;;;;;;;1.83;0.87;;;6.30;99.90;;;;;;5063614;28;20617;-80
2022/01/19 09:48:09;;;;;;;0.40;0.40;;;6.20;99.90;;;;;;5063555;28;20205;-80
2022/01/19 09:50:36;;;;;;;0.17;0.17;;;6.20;99.90;;;;;;5065162;28;20620;-80
2022/01/19 09:53:07;;;;;;;0.53;0.53;;;6.20;99.90;;;;;;5063055;28;20704;-79
2022/01/19 09:55:34;;;;;;;4.23;0.67;;;6.30;99.90;;;;;;5062908;28;20635;-80
2022/01/19 09:57:59;;;;;;;0.93;0.40;;;6.30;99.90;;;;;;5055031;28;20287;-79
2022/01/19 10:00:25;;;;;;;0.37;0.27;;;6.40;99.90;;;;;;5062925;28;20733;-80
2022/01/19 10:03:21;;;;;;;0.93;0.53;;;6.50;99.90;;;;;;5060386;28;20268;-80
2022/01/19 10:06:10;;;;;;;0.53;0.53;;;6.50;99.90;;;;;;5061579;28;20189;-79
2022/01/19 10:08:41;;;;;;;0.57;0.53;;;6.50;99.90;;;;;;5056091;28;20202;-79
2022/01/19 10:11:22;;;;;;;0.27;0.23;;;6.40;99.90;;;;;;5059601;28;20196;-79
2022/01/19 10:17:02;;;;;;;0.40;0.30;;;6.50;99.90;;;;;;5065157;28;20191;-79
2022/01/19 10:19:28;;;;;;;0.50;0.50;;;6.60;99.90;;;;;;5061912;28;20266;-80
2022/01/19 10:21:58;;;;;;;0.40;0.40;;;6.70;99.90;;;;;;5063665;28;20217;-80
2022/01/19 10:24:46;;;;;;;0.20;0.20;;;6.80;99.90;;;;;;5062153;28;20195;-80
2022/01/19 10:27:31;;;;;;;1.90;0.73;;;6.60;99.90;;;;;;5049962;28;20273;-80
2022/01/19 10:30:02;;;;;;;0.40;0.40;;;6.60;99.90;;;;;;5061805;28;20557;-80
2022/01/19 10:32:36;;;;;;;0.63;0.63;;;6.50;99.90;;;;;;5051837;28;20293;-80
2022/01/19 10:35:31;;;;;;;0.40;0.40;;;6.50;99.90;;;;;;5065114;28;20198;-80
2022/01/19 10:38:27;;;;;;;0.83;0.40;;;6.30;99.90;;;;;;5061328;28;20204;-79
2022/01/19 10:40:57;;;;;;;0.80;0.80;;;6.20;99.90;;;;;;5066443;28;20197;-79
2022/01/19 10:43:26;;;;;;;0.33;0.33;;;6.00;99.90;;;;;;5064847;28;20180;-80
2022/01/19 10:45:51;;;;;;;1.83;0.27;;;6.00;99.90;;;;;;5063323;28;20201;-80
2022/01/19 10:48:38;;;;;;;0.83;0.80;;;6.00;99.90;;;;;;5061975;28;20255;-80
2022/01/19 10:51:16;;;;;;;0.60;0.60;;;5.80;99.90;;;;;;5060863;28;20193;-79
2022/01/19 10:53:46;;;;;;;0.40;0.40;;;5.90;99.90;;;;;;5062888;28;20180;-79
2022/01/19 10:56:29;;;;;;;0.63;0.63;;;5.80;99.90;;;;;;5065095;28;20186;-79
2022/01/19 10:59:00;;;;;;;0.93;0.93;;;5.80;99.90;;;;;;5062557;28;20573;-79
2022/01/19 11:01:52;;;;;;;0.53;0.50;;;5.80;99.90;;;;;;5064090;28;20680;-79
2022/01/19 11:04:28;;;;;;;0.50;0.50;;;5.60;99.90;;;;;;5060169;28;20202;-79
2022/01/19 11:07:08;;;;;;;0.70;0.70;;;5.50;99.90;;;;;;5063085;28;20169;-79
2022/01/19 11:09:46;;;;;;;0.53;0.40;;;5.40;99.90;;;;;;5063700;28;20227;-79
2022/01/19 11:12:19;;;;;;;0.50;0.50;;;5.30;99.90;;;;;;5060941;28;20191;-79
2022/01/19 11:14:45;;;;;;;1.83;0.40;;;5.20;99.90;;;;;;5065952;28;20586;-79
2022/01/19 11:17:11;;;;;;;0.50;0.50;;;5.10;99.90;;;;;;5063124;28;20779;-79
2022/01/19 11:19:43;;;;;;;1.70;0.90;;;5.10;99.90;;;;;;5062742;28;20208;-79
2022/01/19 11:22:34;;;;;;;1.70;0.43;;;5.00;99.90;;;;;;5067702;28;20211;-79
2022/01/19 11:25:20;;;;;;;1.23;0.30;;;5.00;99.90;;;;;;5068250;28;20199;-79
2022/01/19 11:27:47;;;;;;;0.33;0.33;;;5.10;99.90;;;;;;5068059;28;20205;-79
2022/01/19 11:30:21;;;;;;;1.00;0.83;;;5.10;99.90;;;;;;5078187;28;20372;-79
2022/01/19 11:33:23;;;;;;;0.50;0.50;;;5.10;99.90;;;;;;5081570;28;20219;-79
2022/01/19 11:35:50;;;;;;;1.33;0.43;;;5.00;99.90;;;;;;5079967;28;20796;-80
2022/01/19 11:38:33;;;;;;;0.50;0.50;;;5.10;99.90;;;;;;5066103;28;20255;-79
2022/01/19 11:41:02;;;;;;;0.20;0.20;;;5.00;99.90;;;;;;5063950;28;20201;-80
2022/01/19 11:43:29;;;;;;;0.97;0.80;;;4.90;99.90;;;;;;5058564;28;20186;-79
2022/01/19 11:45:58;;;;;;;2.47;1.17;;;4.80;99.90;;;;;;5064143;28;20260;-80
2022/01/19 11:48:31;;;;;;;0.50;0.50;;;4.80;99.90;;;;;;5065711;28;20215;-79
2022/01/19 11:51:24;;;;;;;0.70;0.70;;;4.80;99.90;;;;;;5064976;28;20340;-79
2022/01/19 11:54:19;;;;;;;1.20;0.80;;;4.80;99.90;;;;;;5060556;28;20286;-78
2022/01/19 11:57:02;;;;;;;0.50;0.50;;;4.80;99.90;;;;;;5063011;28;20210;-79
2022/01/19 11:59:47;;;;;;;1.17;1.07;;;4.80;99.90;;;;;;5065825;28;20225;-78
2022/01/19 12:02:46;;;;;;;0.53;0.53;;;4.70;99.90;;;;;;5056857;28;20194;-78
2022/01/19 12:05:12;;;;;;;0.77;0.70;;;4.70;99.90;;;;;;5065695;28;20289;-78
2022/01/19 12:07:45;;;;;;;1.67;1.10;;;4.70;99.90;;;;;;5065808;28;20252;-79
2022/01/19 12:10:23;;;;;;;0.80;0.80;;;4.70;99.90;;;;;;5064959;28;20179;-78
2022/01/19 12:13:30;;;;;;;0.97;0.87;;;4.70;99.90;;;;;;5064946;28;20233;-79
2022/01/19 12:16:18;;;;;;;0.90;0.90;;;4.70;99.90;;;;;;5064439;28;20172;-79
2022/01/19 12:18:48;;;;;;;1.93;1.20;;;4.70;99.90;;;;;;5067056;28;20199;-79
2022/01/19 12:21:15;;;;;;;1.27;0.90;;;4.70;99.90;;;;;;5065746;28;20210;-79
2022/01/19 12:23:43;;;;;;;0.77;0.77;;;4.70;99.90;;;;;;5061343;28;20181;-79
2022/01/19 12:26:10;;;;;;;0.83;0.80;;;4.70;99.90;;;;;;5063926;28;20773;-79
2022/01/19 12:28:46;;;;;;;1.57;1.47;;;4.80;99.90;;;;;;5063550;28;20295;-79
2022/01/19 12:31:36;;;;;;;1.97;1.20;;;4.70;99.90;;;;;;5062623;28;20648;-79
2022/01/19 12:34:04;;;;;;;2.10;1.00;;;4.70;99.90;;;;;;5060226;28;20200;-78
2022/01/19 12:36:59;;;;;;;3.30;1.03;;;4.70;99.90;;;;;;5057769;28;20556;-79
2022/01/19 12:39:25;;;;;;;1.50;1.40;;;4.80;99.90;;;;;;5043061;28;20212;-80
2022/01/19 12:42:05;;;;;;;1.20;1.20;;;4.80;99.90;;;;;;5058770;28;20211;-79
2022/01/19 12:44:40;;;;;;;1.23;1.13;;;4.80;99.90;;;;;;5073016;28;20181;-80
2022/01/19 12:47:28;;;;;;;1.30;0.97;;;4.80;99.90;;;;;;5058957;28;20181;-78
2022/01/19 12:50:19;;;;;;;2.40;1.73;;;4.80;99.90;;;;;;5061548;28;20633;-80
2022/01/19 12:52:47;;;;;;;3.70;1.73;;;4.80;99.90;;;;;;5035167;28;20559;-80
2022/01/19 12:55:19;;;;;;;0.97;0.97;;;4.70;99.90;;;;;;5062204;28;20185;-82
2022/01/19 12:57:45;;;;;;;1.33;1.23;;;4.70;99.90;;;;;;5057733;28;20399;-81
2022/01/19 13:00:14;;;;;;;2.63;2.40;;;4.70;99.90;;;;;;5059395;28;20230;-82
2022/01/19 13:02:39;;;;;;;1.63;1.00;;;4.60;99.90;;;;;;5064335;28;20535;-81
2022/01/19 13:05:09;;;;;;;0.80;0.80;;;4.60;99.90;;;;;;5060112;28;20215;-80
2022/01/19 13:07:44;;;;;;;0.97;0.73;;;4.50;99.90;;;;;;5062525;28;20183;-81
2022/01/19 13:12:59;;;;;;;1.00;0.83;;;4.50;99.90;;;;;;5062763;28;20186;-79
2022/01/19 13:15:42;;;;;;;1.30;1.20;;;4.50;99.90;;;;;;5060859;28;20180;-80
2022/01/19 13:18:08;;;;;;;1.90;1.13;;;4.50;99.90;;;;;;5059090;28;20210;-79
2022/01/19 13:20:34;;;;;;;1.03;0.57;;;4.50;99.90;;;;;;5061575;28;20187;-79
2022/01/19 13:23:00;;;;;;;0.40;0.40;;;4.50;99.90;;;;;;5061650;28;20827;-79
2022/01/19 13:25:29;;;;;;;0.50;0.50;;;4.50;99.90;;;;;;5063375;28;20180;-79
2022/01/19 13:28:00;;;;;;;1.50;1.00;;;4.50;99.90;;;;;;5061927;28;20684;-79
2022/01/19 13:30:28;;;;;;;0.80;0.80;;;4.50;99.90;;;;;;5065538;28;20229;-79
2022/01/19 13:32:54;;;;;;;1.70;0.90;;;4.50;99.90;;;;;;5060644;28;20194;-80
2022/01/19 13:35:22;;;;;;;0.87;0.77;;;4.50;99.90;;;;;;5062102;28;20536;-79
2022/01/19 13:37:54;;;;;;;0.87;0.87;;;4.50;99.90;;;;;;5063656;28;20646;-79
2022/01/19 13:40:25;;;;;;;0.20;0.20;;;4.40;99.90;;;;;;5064010;28;20183;-79
2022/01/19 13:42:57;;;;;;;1.00;0.57;;;4.40;99.90;;;;;;5062234;28;20223;-79
2022/01/19 13:50:41;;;;;;;1.60;0.60;;;4.20;99.90;;;;;;5066763;28;20744;-80
2022/01/19 13:53:07;;;;;;;0.63;0.63;;;4.20;99.90;;;;;;5061172;28;20683;-80
2022/01/19 13:55:33;;;;;;;0.60;0.60;;;4.10;99.90;;;;;;5066340;28;20182;-80
2022/01/19 13:58:09;;;;;;;2.67;1.47;;;4.20;99.90;;;;;;5067045;28;20205;-80
2022/01/19 14:00:36;;;;;;;1.20;0.83;;;4.20;99.90;;;;;;5065070;28;20547;-80
2022/01/19 14:03:04;;;;;;;0.43;0.43;;;4.10;99.90;;;;;;5068428;28;20241;-79
2022/01/19 14:05:45;;;;;;;1.17;0.70;;;4.10;99.90;;;;;;5065667;28;20202;-79
2022/01/19 14:08:12;;;;;;;0.33;0.33;;;4.10;99.90;;;;;;5067657;28;20201;-79
2022/01/19 14:10:49;;;;;;;0.27;0.27;;;4.10;99.90;;;;;;5067580;28;20184;-79
2022/01/19 14:13:36;;;;;;;0.83;0.43;;;4.10;99.90;;;;;;5067454;28;20183;-79
2022/01/19 14:16:38;;;;;;;0.57;0.47;;;4.10;99.90;;;;;;5067253;28;20654;-80
2022/01/19 14:19:24;;;;;;;1.17;1.07;;;4.10;99.90;;;;;;5063500;28;20217;-80
2022/01/19 14:22:09;;;;;;;1.23;1.13;;;4.20;99.90;;;;;;5058514;28;20231;-79
2022/01/19 14:24:40;;;;;;;1.00;0.57;;;4.10;99.90;;;;;;5066371;28;20233;-80
2022/01/19 14:27:06;;;;;;;0.20;0.20;;;4.20;99.90;;;;;;5067883;28;20216;-79
2022/01/19 14:29:32;;;;;;;1.97;1.07;;;4.20;99.90;;;;;;5066052;28;20207;-82
2022/01/19 14:31:59;;;;;;;0.27;0.27;;;4.30;99.90;;;;;;5064678;28;20281;-80
2022/01/19 14:34:34;;;;;;;0.83;0.83;;;4.40;99.90;;;;;;5064546;28;20547;-80
2022/01/19 14:37:12;;;;;;;0.50;0.50;;;4.40;99.90;;;;;;5068238;28;20660;-79
2022/01/19 14:40:07;;;;;;;1.93;1.27;;;4.50;99.90;;;;;;5068170;28;20302;-79
2022/01/19 14:42:36;;;;;;;0.27;0.27;;;4.40;99.90;;;;;;5065124;28;20210;-79
2022/01/19 14:45:20;;;;;;;1.80;0.87;;;4.30;99.90;;;;;;5064240;28;20175;-78